createdAt,value
2018-09-13T00:00:10.649Z,17.98
2018-09-13T00:02:39.300Z,17.86
2018-09-13T00:05:07.555Z,17.81
2018-09-13T00:07:35.802Z,17.93
2018-09-13T00:10:04.059Z,17.78
2018-09-13T00:12:32.308Z,17.89
2018-09-13T00:15:00.557Z,17.81
2018-09-13T00:17:28.782Z,17.91
2018-09-13T00:19:57.014Z,17.76
2018-09-13T00:22:25.250Z,17.84
2018-09-13T00:24:53.491Z,17.81
2018-09-13T00:27:21.726Z,17.82
2018-09-13T00:29:49.965Z,17.92
2018-09-13T00:32:18.203Z,17.97
2018-09-13T00:34:46.427Z,18.19
2018-09-13T00:37:14.661Z,17.94
2018-09-13T00:39:42.972Z,17.92
2018-09-13T00:42:11.205Z,17.86
2018-09-13T00:44:39.442Z,17.89
2018-09-13T00:47:13.683Z,17.78
2018-09-13T00:49:42.890Z,17.93
2018-09-13T00:52:11.132Z,17.90
2018-09-13T00:54:39.368Z,17.97
2018-09-13T00:57:07.952Z,17.87
2018-09-13T00:59:36.190Z,17.84
2018-09-13T01:02:04.443Z,17.88
2018-09-13T01:04:32.666Z,17.93
2018-09-13T01:07:00.898Z,17.83
2018-09-13T01:09:29.114Z,17.91
2018-09-13T01:11:57.382Z,17.96
2018-09-13T01:14:25.654Z,18.06
2018-09-13T01:16:53.894Z,18.07
2018-09-13T01:19:22.147Z,18.04
2018-09-13T01:21:50.422Z,17.90
2018-09-13T01:24:18.642Z,17.80
2018-09-13T01:26:46.973Z,17.66
2018-09-13T01:29:15.198Z,17.79
2018-09-13T01:31:43.478Z,17.86
2018-09-13T01:34:11.706Z,17.80
2018-09-13T01:36:39.922Z,17.90
2018-09-13T01:39:09.233Z,17.83
2018-09-13T01:41:37.661Z,17.81
2018-09-13T01:44:06.253Z,17.88
2018-09-13T01:46:34.481Z,17.80
2018-09-13T01:49:02.723Z,17.77
2018-09-13T01:51:30.921Z,17.81
2018-09-13T01:53:59.172Z,17.71
2018-09-13T01:56:27.395Z,17.76
2018-09-13T01:58:55.621Z,17.90
2018-09-13T02:01:23.846Z,17.89
2018-09-13T02:03:52.099Z,18.14
2018-09-13T02:06:20.330Z,18.10
2018-09-13T02:08:48.615Z,18.26
2018-09-13T02:11:16.882Z,18.01
2018-09-13T02:13:45.119Z,18.01
2018-09-13T02:16:13.341Z,18.06
2018-09-13T02:18:41.594Z,18.13
2018-09-13T02:21:09.834Z,18.37
2018-09-13T02:23:38.084Z,18.18
2018-09-13T02:26:06.525Z,18.14
2018-09-13T02:28:34.757Z,17.98
2018-09-13T02:31:02.996Z,18.16
2018-09-13T02:33:31.229Z,18.32
2018-09-13T02:35:59.454Z,18.30
2018-09-13T02:38:27.670Z,18.28
2018-09-13T02:40:55.955Z,18.38
2018-09-13T02:43:24.184Z,18.39
2018-09-13T02:45:52.505Z,18.43
2018-09-13T02:48:20.742Z,18.34
2018-09-13T02:50:48.997Z,18.43
2018-09-13T02:53:17.228Z,18.38
2018-09-13T02:55:45.461Z,18.44
2018-09-13T02:58:13.702Z,18.48
2018-09-13T03:00:41.931Z,18.45
2018-09-13T03:03:10.169Z,18.32
2018-09-13T03:05:38.406Z,18.40
2018-09-13T03:08:06.668Z,18.31
2018-09-13T03:10:34.901Z,18.43
2018-09-13T03:13:03.165Z,18.48
2018-09-13T03:15:31.403Z,18.36
2018-09-13T03:17:59.650Z,18.35
2018-09-13T03:20:27.915Z,18.30
2018-09-13T03:22:56.127Z,18.37
2018-09-13T03:25:24.353Z,18.29
2018-09-13T03:27:52.894Z,18.18
2018-09-13T03:30:21.170Z,18.34
2018-09-13T03:32:49.404Z,18.18
2018-09-13T03:35:17.653Z,18.27
2018-09-13T03:37:45.910Z,17.98
2018-09-13T03:40:14.150Z,18.13
2018-09-13T03:42:42.461Z,18.14
2018-09-13T03:45:10.763Z,18.20
2018-09-13T03:47:39.019Z,18.20
2018-09-13T03:50:07.251Z,18.23
2018-09-13T03:52:35.495Z,18.16
2018-09-13T03:55:04.884Z,17.98
2018-09-13T03:57:33.106Z,18.20
2018-09-13T04:00:01.340Z,18.12
2018-09-13T04:02:29.622Z,18.11
2018-09-13T04:04:57.832Z,18.01
2018-09-13T04:07:26.102Z,18.07
2018-09-13T04:09:54.322Z,17.89
2018-09-13T04:12:22.898Z,18.04
2018-09-13T04:14:51.141Z,17.88
2018-09-13T04:17:19.386Z,17.77
2018-09-13T04:19:47.789Z,17.79
2018-09-13T04:22:16.781Z,17.71
2018-09-13T04:24:45.367Z,17.85
2018-09-13T04:27:13.991Z,17.78
2018-09-13T04:29:42.588Z,17.70
2018-09-13T04:32:10.842Z,17.87
2018-09-13T04:34:39.107Z,17.96
2018-09-13T04:37:07.570Z,17.68
2018-09-13T04:39:35.823Z,17.75
2018-09-13T04:42:04.043Z,17.61
2018-09-13T04:44:32.310Z,17.52
2018-09-13T04:47:00.547Z,17.43
2018-09-13T04:49:28.791Z,17.58
2018-09-13T04:51:57.019Z,17.40
2018-09-13T04:54:25.282Z,17.26
2018-09-13T04:56:53.494Z,17.27
2018-09-13T04:59:21.729Z,17.03
2018-09-13T05:01:49.950Z,17.12
2018-09-13T05:04:18.175Z,17.15
2018-09-13T05:06:46.472Z,17.16
2018-09-13T05:09:15.080Z,17.10
2018-09-13T05:11:43.376Z,17.14
2018-09-13T05:14:11.584Z,17.07
2018-09-13T05:16:39.822Z,17.02
2018-09-13T05:19:08.045Z,17.03
2018-09-13T05:21:36.277Z,17.05
2018-09-13T05:24:04.514Z,16.84
2018-09-13T05:26:32.751Z,16.80
2018-09-13T05:29:01.026Z,16.70
2018-09-13T05:31:29.276Z,16.99
2018-09-13T05:33:57.465Z,16.82
2018-09-13T05:36:25.701Z,16.92
2018-09-13T05:38:53.942Z,16.97
2018-09-13T05:41:22.178Z,16.96
2018-09-13T05:43:50.410Z,16.86
2018-09-13T05:46:18.650Z,16.79
2018-09-13T05:48:46.881Z,16.82
2018-09-13T05:51:15.164Z,16.86
2018-09-13T05:53:43.338Z,16.80
2018-09-13T05:56:11.564Z,16.89
2018-09-13T05:58:39.801Z,16.96
2018-09-13T06:01:08.150Z,17.09
2018-09-13T06:03:36.393Z,17.03
2018-09-13T06:06:04.622Z,16.98
2018-09-13T06:08:32.890Z,17.03
2018-09-13T06:11:01.076Z,16.88
2018-09-13T06:13:29.313Z,16.98
2018-09-13T06:15:57.538Z,17.15
2018-09-13T06:18:25.786Z,17.39
2018-09-13T06:20:54.007Z,17.35
2018-09-13T06:23:22.230Z,17.26
2018-09-13T06:25:50.479Z,17.20
2018-09-13T06:28:18.698Z,17.09
2018-09-13T06:30:46.925Z,17.08
2018-09-13T06:33:15.182Z,17.08
2018-09-13T06:35:43.431Z,17.05
2018-09-13T06:38:11.699Z,17.06
2018-09-13T06:40:39.894Z,17.17
2018-09-13T06:43:08.146Z,17.08
2018-09-13T06:45:36.387Z,17.23
2018-09-13T06:48:04.956Z,17.15
2018-09-13T06:50:33.187Z,17.19
2018-09-13T06:53:01.427Z,17.25
2018-09-13T06:55:29.665Z,17.22
2018-09-13T06:57:57.943Z,17.28
2018-09-13T07:00:26.258Z,17.32
2018-09-13T07:02:54.491Z,17.37
2018-09-13T07:05:22.922Z,17.24
2018-09-13T07:07:51.150Z,17.20
2018-09-13T07:10:19.382Z,17.30
2018-09-13T07:12:47.605Z,17.39
2018-09-13T07:15:15.854Z,17.37
2018-09-13T07:17:44.092Z,17.53
2018-09-13T07:20:12.323Z,17.40
2018-09-13T07:22:40.555Z,17.26
2018-09-13T07:25:08.844Z,17.47
2018-09-13T07:27:37.082Z,17.35
2018-09-13T07:30:05.407Z,17.36
2018-09-13T07:32:33.650Z,17.32
2018-09-13T07:35:01.902Z,17.27
2018-09-13T07:37:30.146Z,17.61
2018-09-13T07:39:58.390Z,17.59
2018-09-13T07:42:26.657Z,17.37
2018-09-13T07:44:54.878Z,17.57
2018-09-13T07:47:23.097Z,17.35
2018-09-13T07:49:51.349Z,17.53
2018-09-13T07:52:19.590Z,17.54
2018-09-13T07:54:47.856Z,17.44
2018-09-13T07:57:16.050Z,17.42
2018-09-13T07:59:44.278Z,17.38
2018-09-13T08:02:12.503Z,17.32
2018-09-13T08:04:40.747Z,17.24
2018-09-13T08:07:08.969Z,17.30
2018-09-13T08:09:37.231Z,17.42
2018-09-13T08:12:05.677Z,17.30
2018-09-13T08:14:33.702Z,17.33
2018-09-13T08:17:01.929Z,17.42
2018-09-13T08:19:30.162Z,17.52
2018-09-13T08:21:58.406Z,17.49
2018-09-13T08:24:26.609Z,17.67
2018-09-13T08:26:54.899Z,17.58
2018-09-13T08:29:23.091Z,17.54
2018-09-13T08:31:51.317Z,17.55
2018-09-13T08:34:19.546Z,17.42
2018-09-13T08:36:47.825Z,17.54
2018-09-13T08:39:16.005Z,17.46
2018-09-13T08:41:44.246Z,17.53
2018-09-13T08:44:12.477Z,17.59
2018-09-13T08:46:40.725Z,17.53
2018-09-13T08:49:08.951Z,17.74
2018-09-13T08:51:37.210Z,17.92
2018-09-13T08:54:05.465Z,17.97
2018-09-13T08:56:33.696Z,17.92
2018-09-13T08:59:01.930Z,18.03
2018-09-13T09:01:30.165Z,17.96
2018-09-13T09:03:58.434Z,17.82
2018-09-13T09:06:26.706Z,17.92
2018-09-13T09:08:54.903Z,18.05
2018-09-13T09:11:23.130Z,18.01
2018-09-13T09:13:51.382Z,18.19
2018-09-13T09:16:19.627Z,18.00
2018-09-13T09:18:47.890Z,17.96
2018-09-13T09:21:16.114Z,18.18
2018-09-13T09:23:44.338Z,18.13
2018-09-13T09:26:12.557Z,18.08
2018-09-13T09:28:40.821Z,17.84
2018-09-13T09:31:09.055Z,17.83
2018-09-13T09:33:37.277Z,17.70
2018-09-13T09:36:05.535Z,17.96
2018-09-13T09:38:33.786Z,18.00
2018-09-13T09:41:02.066Z,17.93
2018-09-13T09:43:30.286Z,18.19
2018-09-13T09:45:58.582Z,17.80
2018-09-13T09:48:26.905Z,17.72
2018-09-13T09:50:55.151Z,17.90
2018-09-13T09:53:23.425Z,17.83
2018-09-13T09:55:51.650Z,17.83
2018-09-13T09:58:19.887Z,17.76
2018-09-13T10:00:53.490Z,17.86
2018-09-13T10:03:21.731Z,17.86
2018-09-13T10:05:49.961Z,17.81
2018-09-13T10:08:18.186Z,17.74
2018-09-13T10:10:46.406Z,17.74
2018-09-13T10:13:14.642Z,17.75
2018-09-13T10:15:48.266Z,17.80
2018-09-13T10:18:21.705Z,17.72
2018-09-13T10:20:55.197Z,17.65
2018-09-13T10:23:28.618Z,17.51
2018-09-13T10:26:02.177Z,17.48
2018-09-13T10:28:35.726Z,17.67
2018-09-13T10:31:09.159Z,17.77
2018-09-13T10:33:42.784Z,17.54
2018-09-13T10:36:16.253Z,17.47
2018-09-13T10:38:49.758Z,17.39
2018-09-13T10:41:23.256Z,17.47
2018-09-13T10:43:56.719Z,17.63
2018-09-13T10:46:26.589Z,17.67
2018-09-13T10:48:59.914Z,17.71
2018-09-13T10:52:37.325Z,17.75
2018-09-13T10:55:05.643Z,17.62
2018-09-13T10:57:39.227Z,17.55
2018-09-13T11:00:07.495Z,17.57
2018-09-13T11:02:35.759Z,17.52
2018-09-13T11:05:04.060Z,17.73
2018-09-13T11:07:32.288Z,17.59
2018-09-13T11:10:00.535Z,17.65
2018-09-13T11:13:34.512Z,17.73
2018-09-13T11:16:02.785Z,17.44
2018-09-13T11:18:31.030Z,17.73
2018-09-13T11:20:59.310Z,17.37
2018-09-13T11:23:27.579Z,17.40
2018-09-13T11:25:55.835Z,17.47
2018-09-13T11:28:24.053Z,17.55
2018-09-13T11:31:08.839Z,17.64
2018-09-13T11:33:37.062Z,17.82
2018-09-13T11:36:05.302Z,17.71
2018-09-13T11:38:33.546Z,17.56
2018-09-13T11:41:01.996Z,17.62
2018-09-13T11:43:30.070Z,17.55
2018-09-13T11:45:58.326Z,17.59
2018-09-13T11:48:26.575Z,17.63
2018-09-13T11:50:54.810Z,17.57
2018-09-13T11:53:23.123Z,17.57
2018-09-13T11:55:51.345Z,17.68
2018-09-13T11:58:19.558Z,17.72
2018-09-13T12:00:47.826Z,17.75
2018-09-13T12:03:16.045Z,17.85
2018-09-13T12:05:44.274Z,17.96
2018-09-13T12:08:12.505Z,17.96
2018-09-13T12:10:40.730Z,18.01
2018-09-13T12:13:08.975Z,17.93
2018-09-13T12:15:37.204Z,17.91
2018-09-13T12:18:05.705Z,17.86
2018-09-13T12:20:33.918Z,17.75
2018-09-13T12:23:02.161Z,17.77
2018-09-13T12:25:30.370Z,17.72
2018-09-13T12:27:58.589Z,17.68
2018-09-13T12:30:26.818Z,17.75
2018-09-13T12:32:55.058Z,17.64
2018-09-13T12:35:23.289Z,17.75
2018-09-13T12:37:51.511Z,18.07
2018-09-13T12:40:19.755Z,18.24
2018-09-13T12:42:48.028Z,18.08
2018-09-13T12:45:16.308Z,18.04
2018-09-13T12:47:44.544Z,17.99
2018-09-13T12:50:12.812Z,18.08
2018-09-13T12:52:41.039Z,18.18
2018-09-13T12:55:09.330Z,18.23
2018-09-13T12:57:37.602Z,18.17
2018-09-13T13:00:06.063Z,18.08
2018-09-13T13:02:34.305Z,18.07
2018-09-13T13:05:02.541Z,18.39
2018-09-13T13:07:30.796Z,18.38
2018-09-13T13:09:59.018Z,18.55
2018-09-13T13:12:27.288Z,18.64
2018-09-13T13:14:55.546Z,18.43
2018-09-13T13:17:23.853Z,18.42
2018-09-13T13:19:52.103Z,18.41
2018-09-13T13:22:20.317Z,18.19
2018-09-13T13:24:48.595Z,18.18
2018-09-13T13:27:16.873Z,18.12
2018-09-13T13:29:45.027Z,18.08
2018-09-13T13:32:13.277Z,18.08
2018-09-13T13:34:41.482Z,18.18
2018-09-13T13:37:09.716Z,18.09
2018-09-13T13:39:37.948Z,18.08
2018-09-13T13:42:06.274Z,18.21
2018-09-13T13:44:34.517Z,18.18
2018-09-13T13:47:02.754Z,18.12
2018-09-13T13:49:31.035Z,17.99
2018-09-13T13:51:59.247Z,18.04
2018-09-13T13:54:27.477Z,18.04
2018-09-13T13:56:55.693Z,17.99
2018-09-13T13:59:23.916Z,18.06
2018-09-13T14:01:52.384Z,18.02
2018-09-13T14:04:20.622Z,18.00
2018-09-13T14:06:48.853Z,18.11
2018-09-13T14:09:17.087Z,18.20
2018-09-13T14:11:45.327Z,18.19
2018-09-13T14:14:13.566Z,18.26
2018-09-13T14:16:41.797Z,18.27
2018-09-13T14:19:10.050Z,18.36
2018-09-13T14:21:38.282Z,18.37
2018-09-13T14:24:06.542Z,18.30
2018-09-13T14:26:34.789Z,18.34
2018-09-13T14:29:03.062Z,18.38
2018-09-13T14:31:31.284Z,18.37
2018-09-13T14:33:59.519Z,18.43
2018-09-13T14:36:27.738Z,18.47
2018-09-13T14:38:55.962Z,18.57
2018-09-13T14:41:24.295Z,18.76
2018-09-13T14:43:52.516Z,18.70
2018-09-13T14:46:20.737Z,18.85
2018-09-13T14:48:48.958Z,19.00
2018-09-13T14:51:17.181Z,18.89
2018-09-13T14:53:45.399Z,18.90
2018-09-13T14:56:13.662Z,18.95
2018-09-13T14:58:41.849Z,19.02
2018-09-13T15:01:10.078Z,18.94
2018-09-13T15:03:38.402Z,19.19
2018-09-13T15:06:06.665Z,19.22
2018-09-13T15:08:34.887Z,18.92
2018-09-13T15:11:03.155Z,19.17
2018-09-13T15:13:31.385Z,19.20
2018-09-13T15:15:59.622Z,19.24
2018-09-13T15:18:27.890Z,19.20
2018-09-13T15:20:56.115Z,19.41
2018-09-13T15:23:24.411Z,19.38
2018-09-13T15:25:52.622Z,19.42
2018-09-13T15:28:20.863Z,19.43
2018-09-13T15:30:49.168Z,19.45
2018-09-13T15:33:17.391Z,19.42
2018-09-13T15:35:45.598Z,19.30
2018-09-13T15:38:13.846Z,19.21
2018-09-13T15:40:42.151Z,19.20
2018-09-13T15:43:10.447Z,19.15
2018-09-13T15:45:39.275Z,19.09
2018-09-13T15:48:07.600Z,19.11
2018-09-13T15:50:35.848Z,18.97
2018-09-13T15:53:04.139Z,19.15
2018-09-13T15:55:32.417Z,19.03
2018-09-13T15:58:00.644Z,19.05
2018-09-13T16:00:28.896Z,19.00
2018-09-13T16:02:57.166Z,19.01
2018-09-13T16:05:25.458Z,18.78
2018-09-13T16:07:53.673Z,18.85
2018-09-13T16:10:21.932Z,18.90
2018-09-13T16:12:50.232Z,18.75
2018-09-13T16:15:18.399Z,18.89
2018-09-13T16:17:46.621Z,18.74
2018-09-13T16:20:14.875Z,18.91
2018-09-13T16:22:43.181Z,18.86
2018-09-13T16:25:11.401Z,18.88
2018-09-13T16:27:39.626Z,18.78
2018-09-13T16:30:07.866Z,18.90
2018-09-13T16:32:36.100Z,18.92
2018-09-13T16:35:04.470Z,18.87
2018-09-13T16:37:37.891Z,18.82
2018-09-13T16:40:10.335Z,18.99
2018-09-13T16:42:51.264Z,18.90
2018-09-13T16:45:19.702Z,18.72
2018-09-13T16:47:53.185Z,18.75
2018-09-13T16:50:21.387Z,18.77
2018-09-13T16:52:49.604Z,18.84
2018-09-13T16:55:17.854Z,18.98
2018-09-13T16:57:46.126Z,18.89
2018-09-13T17:00:14.380Z,18.73
2018-09-13T17:02:42.610Z,18.88
2018-09-13T17:05:10.950Z,18.73
2018-09-13T17:07:39.347Z,18.53
2018-09-13T17:10:07.650Z,18.55
2018-09-13T17:12:37.996Z,18.69
2018-09-13T17:15:06.510Z,18.71
2018-09-13T17:17:34.844Z,18.67
2018-09-13T17:20:03.111Z,18.56
2018-09-13T17:22:31.354Z,18.60
2018-09-13T17:24:59.607Z,18.47
2018-09-13T17:27:27.943Z,18.50
2018-09-13T17:29:56.202Z,18.59
2018-09-13T17:32:24.445Z,18.73
2018-09-13T17:34:52.687Z,18.73
2018-09-13T17:37:20.931Z,18.68
2018-09-13T17:39:49.217Z,18.55
2018-09-13T17:42:17.473Z,18.61
2018-09-13T17:44:45.722Z,18.43
2018-09-13T17:47:13.955Z,18.47
2018-09-13T17:49:42.247Z,18.56
2018-09-13T17:52:10.434Z,18.49
2018-09-13T17:54:38.673Z,18.50
2018-09-13T17:57:06.975Z,18.64
2018-09-13T17:59:35.226Z,18.79
2018-09-13T18:02:03.480Z,18.72
2018-09-13T18:04:31.763Z,18.62
2018-09-13T18:07:00.047Z,18.58
2018-09-13T18:09:28.326Z,18.64
2018-09-13T18:11:56.529Z,18.60
2018-09-13T18:14:24.754Z,18.66
2018-09-13T18:16:53.011Z,18.61
2018-09-13T18:19:21.270Z,18.57
2018-09-13T18:21:49.486Z,18.58
2018-09-13T18:24:17.736Z,18.57
2018-09-13T18:26:45.986Z,18.51
2018-09-13T18:29:14.283Z,18.60
2018-09-13T18:31:42.603Z,18.61
2018-09-13T18:34:10.880Z,18.68
2018-09-13T18:36:39.118Z,18.66
2018-09-13T18:39:08.887Z,18.63
2018-09-13T18:41:37.155Z,18.65
2018-09-13T18:44:05.411Z,18.54
2018-09-13T18:46:33.695Z,18.67
2018-09-13T18:49:01.959Z,18.64
2018-09-13T18:51:30.216Z,18.73
2018-09-13T18:53:58.665Z,18.69
2018-09-13T18:56:26.757Z,18.75
2018-09-13T18:58:54.988Z,18.78
2018-09-13T19:01:23.244Z,18.70
2018-09-13T19:03:51.516Z,18.61
2018-09-13T19:06:19.742Z,18.62
2018-09-13T19:08:47.971Z,18.52
2018-09-13T19:11:16.263Z,18.55
2018-09-13T19:13:44.490Z,18.64
2018-09-13T19:16:12.796Z,18.70
2018-09-13T19:18:41.014Z,18.66
2018-09-13T19:21:09.269Z,18.56
2018-09-13T19:23:37.508Z,18.51
2018-09-13T19:26:05.812Z,18.43
2018-09-13T19:28:34.038Z,18.50
2018-09-13T19:31:02.290Z,18.64
2018-09-13T19:33:30.494Z,18.48
2018-09-13T19:35:58.811Z,18.54
2018-09-13T19:38:27.048Z,18.54
2018-09-13T19:40:55.294Z,18.44
2018-09-13T19:43:23.530Z,18.49
2018-09-13T19:45:51.892Z,18.41
2018-09-13T19:51:10.583Z,18.37
2018-09-13T19:53:38.802Z,18.38
2018-09-13T19:56:07.057Z,18.55
2018-09-13T19:58:35.269Z,18.69
2018-09-13T20:01:03.502Z,18.70
2018-09-13T20:03:32.817Z,18.66
2018-09-13T20:06:01.034Z,18.54
2018-09-13T20:08:29.279Z,18.60
2018-09-13T20:10:57.487Z,18.63
2018-09-13T20:13:25.723Z,18.70
2018-09-13T20:15:53.929Z,18.58
2018-09-13T20:18:23.067Z,18.44
2018-09-13T20:20:51.265Z,18.55
2018-09-13T20:23:19.555Z,18.31
2018-09-13T20:25:47.766Z,18.36
2018-09-13T20:28:15.990Z,18.41
2018-09-13T20:30:44.219Z,18.30
2018-09-13T20:33:12.479Z,18.49
2018-09-13T20:35:40.710Z,18.51
2018-09-13T20:38:08.942Z,18.53
2018-09-13T20:40:37.175Z,18.60
2018-09-13T20:43:05.918Z,18.76
2018-09-13T20:45:34.282Z,18.54
2018-09-13T20:48:02.464Z,18.45
2018-09-13T20:50:30.744Z,18.40
2018-09-13T20:52:58.957Z,18.44
2018-09-13T20:55:27.195Z,18.39
2018-09-13T20:57:55.412Z,18.27
2018-09-13T21:00:23.638Z,18.31
2018-09-13T21:02:51.922Z,18.28
2018-09-13T21:05:20.448Z,18.30
2018-09-13T21:07:48.606Z,18.26
2018-09-13T21:10:16.854Z,18.34
2018-09-13T21:12:45.083Z,18.30
2018-09-13T21:15:13.327Z,18.29
2018-09-13T21:17:41.558Z,18.19
2018-09-13T21:20:09.778Z,18.30
2018-09-13T21:22:38.010Z,18.49
2018-09-13T21:25:06.235Z,18.51
2018-09-13T21:27:34.453Z,18.46
2018-09-13T21:30:02.723Z,18.47
2018-09-13T21:32:30.984Z,18.56
2018-09-13T21:34:59.207Z,18.56
2018-09-13T21:37:27.425Z,18.52
2018-09-13T21:39:55.672Z,18.54
2018-09-13T21:42:23.921Z,18.35
2018-09-13T21:44:52.133Z,18.18
2018-09-13T21:47:20.366Z,18.24
2018-09-13T21:49:48.585Z,18.24
2018-09-13T21:52:16.825Z,18.28
2018-09-13T21:54:45.057Z,18.10
2018-09-13T21:57:13.269Z,18.24
2018-09-13T21:59:41.484Z,18.32
2018-09-13T22:02:09.705Z,18.45
2018-09-13T22:04:37.929Z,18.37
2018-09-13T22:07:06.291Z,18.48
2018-09-13T22:09:34.493Z,18.34
2018-09-13T22:12:03.481Z,18.22
2018-09-13T22:14:31.722Z,18.21
2018-09-13T22:16:59.973Z,18.15
2018-09-13T22:19:28.182Z,17.89
2018-09-13T22:21:56.417Z,17.89
2018-09-13T22:24:24.645Z,17.95
2018-09-13T22:26:52.858Z,17.98
2018-09-13T22:29:21.078Z,18.01
2018-09-13T22:31:49.306Z,17.96
2018-09-13T22:34:17.541Z,17.57
2018-09-13T22:36:45.797Z,17.78
2018-09-13T22:39:14.034Z,17.70
2018-09-13T22:41:42.281Z,17.75
2018-09-13T22:44:10.498Z,17.35
2018-09-13T22:46:38.720Z,17.51
2018-09-13T22:49:06.992Z,17.52
2018-09-13T22:51:35.238Z,17.37
2018-09-13T22:54:03.502Z,17.48
2018-09-13T22:56:31.732Z,17.35
2018-09-13T22:58:59.963Z,17.31
2018-09-13T23:01:28.193Z,17.42
2018-09-13T23:03:56.411Z,17.41
2018-09-13T23:06:24.620Z,17.56
2018-09-13T23:08:52.869Z,17.39
2018-09-13T23:11:21.085Z,17.41
2018-09-13T23:13:49.339Z,17.40
2018-09-13T23:16:17.591Z,17.48
2018-09-13T23:18:45.812Z,17.25
2018-09-13T23:21:14.029Z,17.13
2018-09-13T23:23:42.258Z,17.28
2018-09-13T23:26:10.526Z,16.91
2018-09-13T23:28:38.748Z,17.08
2018-09-13T23:31:06.966Z,16.91
2018-09-13T23:33:35.186Z,17.08
2018-09-13T23:36:03.414Z,17.30
2018-09-13T23:38:31.655Z,17.34
2018-09-13T23:40:59.886Z,17.22
2018-09-13T23:43:28.110Z,16.96
2018-09-13T23:45:56.330Z,17.13
2018-09-13T23:48:24.548Z,17.35
2018-09-13T23:50:52.784Z,17.16
2018-09-13T23:53:21.011Z,17.10
2018-09-13T23:55:49.236Z,17.18
2018-09-13T23:58:17.441Z,17.05
